sensor_id;sensor_type;location;lat;lon;timestamp;pressure;altitude;pressure_sealevel;temperature;humidity
10700;BME280;5401;41.986;21.452;2022-10-31T00:01:30;98880.16;;;15.29;59.58
10700;BME280;5401;41.986;21.452;2022-10-31T00:03:59;98880.75;;;15.31;59.30
10700;BME280;5401;41.986;21.452;2022-10-31T00:06:27;98877.63;;;15.34;59.11
10700;BME280;5401;41.986;21.452;2022-10-31T00:08:57;98887.13;;;15.36;59.50
10700;BME280;5401;41.986;21.452;2022-10-31T00:11:25;98897.69;;;15.37;59.26
10700;BME280;5401;41.986;21.452;2022-10-31T00:13:52;98888.41;;;15.34;59.14
10700;BME280;5401;41.986;21.452;2022-10-31T00:16:21;98904.59;;;15.34;59.06
10700;BME280;5401;41.986;21.452;2022-10-31T00:18:49;98901.75;;;15.29;59.20
10700;BME280;5401;41.986;21.452;2022-10-31T00:21:19;98899.31;;;15.27;59.42
10700;BME280;5401;41.986;21.452;2022-10-31T00:23:47;98905.50;;;15.28;59.62
10700;BME280;5401;41.986;21.452;2022-10-31T00:26:14;98892.03;;;15.28;59.19
10700;BME280;5401;41.986;21.452;2022-10-31T00:28:42;98899.66;;;15.31;59.22
10700;BME280;5401;41.986;21.452;2022-10-31T00:31:11;98906.94;;;15.30;59.22
10700;BME280;5401;41.986;21.452;2022-10-31T00:33:41;98901.16;;;15.27;58.88
10700;BME280;5401;41.986;21.452;2022-10-31T00:36:12;98901.63;;;15.24;59.04
10700;BME280;5401;41.986;21.452;2022-10-31T00:38:42;98892.34;;;15.20;59.66
10700;BME280;5401;41.986;21.452;2022-10-31T00:41:11;98910.03;;;15.16;59.42
10700;BME280;5401;41.986;21.452;2022-10-31T00:43:39;98910.09;;;15.09;59.50
10700;BME280;5401;41.986;21.452;2022-10-31T00:46:06;98910.63;;;15.00;59.66
10700;BME280;5401;41.986;21.452;2022-10-31T00:48:34;98899.69;;;14.95;60.32
10700;BME280;5401;41.986;21.452;2022-10-31T00:51:01;98907.88;;;14.89;60.28
10700;BME280;5401;41.986;21.452;2022-10-31T00:53:29;98896.13;;;14.83;60.49
10700;BME280;5401;41.986;21.452;2022-10-31T00:55:58;98904.19;;;14.83;60.08
10700;BME280;5401;41.986;21.452;2022-10-31T00:58:25;98905.47;;;14.81;60.50
10700;BME280;5401;41.986;21.452;2022-10-31T01:00:53;98907.19;;;14.75;60.35
10700;BME280;5401;41.986;21.452;2022-10-31T01:03:22;98900.41;;;14.73;60.94
10700;BME280;5401;41.986;21.452;2022-10-31T01:05:58;98908.69;;;14.71;61.02
10700;BME280;5401;41.986;21.452;2022-10-31T01:08:26;98911.09;;;14.62;60.64
10700;BME280;5401;41.986;21.452;2022-10-31T01:11:05;98911.56;;;14.59;60.74
10700;BME280;5401;41.986;21.452;2022-10-31T01:13:34;98915.88;;;14.60;61.05
10700;BME280;5401;41.986;21.452;2022-10-31T01:16:03;98912.97;;;14.61;61.15
10700;BME280;5401;41.986;21.452;2022-10-31T01:18:31;98921.66;;;14.63;61.87
10700;BME280;5401;41.986;21.452;2022-10-31T01:21:01;98917.28;;;14.62;61.46
10700;BME280;5401;41.986;21.452;2022-10-31T01:23:29;98917.16;;;14.57;61.83
10700;BME280;5401;41.986;21.452;2022-10-31T01:26:12;98913.66;;;14.57;61.11
10700;BME280;5401;41.986;21.452;2022-10-31T01:28:44;98908.69;;;14.54;62.35
10700;BME280;5401;41.986;21.452;2022-10-31T01:31:12;98909.97;;;14.51;61.59
10700;BME280;5401;41.986;21.452;2022-10-31T01:33:40;98908.16;;;14.45;62.02
10700;BME280;5401;41.986;21.452;2022-10-31T01:36:13;98917.53;;;14.43;61.80
10700;BME280;5401;41.986;21.452;2022-10-31T01:38:41;98910.47;;;14.42;62.70
10700;BME280;5401;41.986;21.452;2022-10-31T01:41:11;98916.69;;;14.42;62.00
10700;BME280;5401;41.986;21.452;2022-10-31T01:43:48;98904.94;;;14.37;62.25
10700;BME280;5401;41.986;21.452;2022-10-31T01:46:19;98912.94;;;14.43;62.59
10700;BME280;5401;41.986;21.452;2022-10-31T01:48:48;98922.31;;;14.41;62.84
10700;BME280;5401;41.986;21.452;2022-10-31T01:51:18;98919.63;;;14.41;62.62
10700;BME280;5401;41.986;21.452;2022-10-31T01:53:48;98919.00;;;14.39;61.78
10700;BME280;5401;41.986;21.452;2022-10-31T01:56:18;98912.81;;;14.38;62.26
10700;BME280;5401;41.986;21.452;2022-10-31T01:58:46;98916.31;;;14.39;62.49
10700;BME280;5401;41.986;21.452;2022-10-31T02:01:14;98914.44;;;14.39;62.74
10700;BME280;5401;41.986;21.452;2022-10-31T02:03:44;98908.44;;;14.37;63.31
10700;BME280;5401;41.986;21.452;2022-10-31T02:06:19;98906.81;;;14.36;63.26
10700;BME280;5401;41.986;21.452;2022-10-31T02:08:48;98906.44;;;14.33;63.13
10700;BME280;5401;41.986;21.452;2022-10-31T02:11:17;98901.25;;;14.31;62.94
10700;BME280;5401;41.986;21.452;2022-10-31T02:13:45;98899.44;;;14.26;63.34
10700;BME280;5401;41.986;21.452;2022-10-31T02:16:14;98909.59;;;14.30;63.29
10700;BME280;5401;41.986;21.452;2022-10-31T02:18:41;98905.69;;;14.26;62.65
10700;BME280;5401;41.986;21.452;2022-10-31T02:21:15;98909.41;;;14.25;62.78
10700;BME280;5401;41.986;21.452;2022-10-31T02:24:19;98910.81;;;14.27;62.51
10700;BME280;5401;41.986;21.452;2022-10-31T02:27:23;98907.38;;;14.21;63.09
10700;BME280;5401;41.986;21.452;2022-10-31T02:30:05;98913.38;;;14.23;63.53
10700;BME280;5401;41.986;21.452;2022-10-31T02:33:03;98912.56;;;14.22;63.52
10700;BME280;5401;41.986;21.452;2022-10-31T02:35:51;98914.41;;;14.22;63.81
10700;BME280;5401;41.986;21.452;2022-10-31T02:38:27;98907.59;;;14.19;63.31
10700;BME280;5401;41.986;21.452;2022-10-31T02:41:01;98913.38;;;14.23;62.46
10700;BME280;5401;41.986;21.452;2022-10-31T02:43:35;98928.94;;;14.21;62.48
10700;BME280;5401;41.986;21.452;2022-10-31T02:46:11;98924.22;;;14.16;63.30
10700;BME280;5401;41.986;21.452;2022-10-31T02:48:44;98904.44;;;14.04;63.13
10700;BME280;5401;41.986;21.452;2022-10-31T02:51:12;98917.84;;;14.11;63.48
10700;BME280;5401;41.986;21.452;2022-10-31T02:53:40;98919.94;;;14.09;63.84
10700;BME280;5401;41.986;21.452;2022-10-31T02:56:12;98933.19;;;14.10;63.96
10700;BME280;5401;41.986;21.452;2022-10-31T02:58:42;98935.25;;;14.08;64.04
10700;BME280;5401;41.986;21.452;2022-10-31T03:01:37;98931.91;;;14.13;63.60
10700;BME280;5401;41.986;21.452;2022-10-31T03:04:27;98928.41;;;14.12;63.25
10700;BME280;5401;41.986;21.452;2022-10-31T03:07:04;98920.75;;;14.09;63.47
10700;BME280;5401;41.986;21.452;2022-10-31T03:09:35;98928.81;;;14.09;62.87
10700;BME280;5401;41.986;21.452;2022-10-31T03:12:13;98935.47;;;14.07;63.08
10700;BME280;5401;41.986;21.452;2022-10-31T03:14:47;98913.38;;;13.98;64.03
10700;BME280;5401;41.986;21.452;2022-10-31T03:17:23;98936.75;;;14.04;64.20
10700;BME280;5401;41.986;21.452;2022-10-31T03:19:56;98925.97;;;14.04;63.01
10700;BME280;5401;41.986;21.452;2022-10-31T03:22:29;98921.00;;;14.01;64.11
10700;BME280;5401;41.986;21.452;2022-10-31T03:25:00;98926.66;;;14.00;63.30
10700;BME280;5401;41.986;21.452;2022-10-31T03:27:31;98934.09;;;13.98;64.17
10700;BME280;5401;41.986;21.452;2022-10-31T03:30:02;98916.59;;;13.83;64.00
10700;BME280;5401;41.986;21.452;2022-10-31T03:32:34;98927.69;;;13.92;63.21
10700;BME280;5401;41.986;21.452;2022-10-31T03:35:06;98926.03;;;13.91;63.33
10700;BME280;5401;41.986;21.452;2022-10-31T03:37:36;98932.69;;;13.89;64.37
10700;BME280;5401;41.986;21.452;2022-10-31T03:40:07;98927.56;;;13.88;63.71
10700;BME280;5401;41.986;21.452;2022-10-31T03:42:39;98937.47;;;13.87;64.25
10700;BME280;5401;41.986;21.452;2022-10-31T03:45:11;98934.16;;;13.85;64.58
10700;BME280;5401;41.986;21.452;2022-10-31T03:47:41;98935.22;;;13.84;64.32
10700;BME280;5401;41.986;21.452;2022-10-31T03:50:13;98940.81;;;13.83;64.22
10700;BME280;5401;41.986;21.452;2022-10-31T03:52:43;98934.63;;;13.82;64.70
10700;BME280;5401;41.986;21.452;2022-10-31T03:55:18;98936.50;;;13.82;63.92
10700;BME280;5401;41.986;21.452;2022-10-31T03:57:52;98926.59;;;13.76;63.78
10700;BME280;5401;41.986;21.452;2022-10-31T04:00:23;98933.81;;;13.82;64.01
10700;BME280;5401;41.986;21.452;2022-10-31T04:02:55;98924.72;;;13.76;63.48
10700;BME280;5401;41.986;21.452;2022-10-31T04:05:26;98935.28;;;13.78;64.26
10700;BME280;5401;41.986;21.452;2022-10-31T04:07:55;98917.72;;;13.69;64.34
10700;BME280;5401;41.986;21.452;2022-10-31T04:10:26;98933.00;;;13.75;64.06
10700;BME280;5401;41.986;21.452;2022-10-31T04:12:58;98933.22;;;13.73;63.95
10700;BME280;5401;41.986;21.452;2022-10-31T04:15:28;98931.03;;;13.64;64.29
10700;BME280;5401;41.986;21.452;2022-10-31T04:17:58;98938.50;;;13.62;63.58
10700;BME280;5401;41.986;21.452;2022-10-31T04:20:32;98945.78;;;13.55;63.80
10700;BME280;5401;41.986;21.452;2022-10-31T04:23:00;98950.16;;;13.50;64.09
10700;BME280;5401;41.986;21.452;2022-10-31T04:25:27;98957.69;;;13.41;63.91
10700;BME280;5401;41.986;21.452;2022-10-31T04:27:55;98965.38;;;13.31;64.38
10700;BME280;5401;41.986;21.452;2022-10-31T04:30:23;98964.41;;;13.19;64.23
10700;BME280;5401;41.986;21.452;2022-10-31T04:32:50;98965.47;;;13.12;64.38
10700;BME280;5401;41.986;21.452;2022-10-31T04:35:18;98973.38;;;13.01;65.12
10700;BME280;5401;41.986;21.452;2022-10-31T04:37:47;98968.84;;;12.95;65.55
10700;BME280;5401;41.986;21.452;2022-10-31T04:40:14;98976.06;;;12.94;65.62
10700;BME280;5401;41.986;21.452;2022-10-31T04:42:42;98980.88;;;12.86;65.15
10700;BME280;5401;41.986;21.452;2022-10-31T04:45:09;98974.03;;;12.77;65.32
10700;BME280;5401;41.986;21.452;2022-10-31T04:47:37;98984.81;;;12.64;66.44
10700;BME280;5401;41.986;21.452;2022-10-31T04:50:05;98986.50;;;12.52;66.02
10700;BME280;5401;41.986;21.452;2022-10-31T04:52:32;98984.03;;;12.45;67.12
10700;BME280;5401;41.986;21.452;2022-10-31T04:55:08;98981.75;;;12.42;66.71
10700;BME280;5401;41.986;21.452;2022-10-31T04:57:40;98973.69;;;12.42;66.74
10700;BME280;5401;41.986;21.452;2022-10-31T05:00:09;98978.44;;;12.52;67.23
10700;BME280;5401;41.986;21.452;2022-10-31T05:02:43;98981.94;;;12.59;66.93
10700;BME280;5401;41.986;21.452;2022-10-31T05:05:11;98981.91;;;12.66;66.69
10700;BME280;5401;41.986;21.452;2022-10-31T05:07:39;98987.72;;;12.69;66.40
10700;BME280;5401;41.986;21.452;2022-10-31T05:10:09;98985.81;;;12.76;67.25
10700;BME280;5401;41.986;21.452;2022-10-31T05:12:38;98983.97;;;12.83;67.28
10700;BME280;5401;41.986;21.452;2022-10-31T05:15:06;98989.75;;;12.86;66.89
10700;BME280;5401;41.986;21.452;2022-10-31T05:17:33;98992.44;;;12.93;66.95
10700;BME280;5401;41.986;21.452;2022-10-31T05:20:01;98982.91;;;12.90;65.68
10700;BME280;5401;41.986;21.452;2022-10-31T05:22:28;99006.63;;;13.06;65.73
10700;BME280;5401;41.986;21.452;2022-10-31T05:24:56;99019.22;;;13.12;66.60
10700;BME280;5401;41.986;21.452;2022-10-31T05:27:25;99023.34;;;13.21;65.37
10700;BME280;5401;41.986;21.452;2022-10-31T05:29:52;99029.88;;;13.38;65.94
10700;BME280;5401;41.986;21.452;2022-10-31T05:32:20;99031.66;;;13.56;66.30
10700;BME280;5401;41.986;21.452;2022-10-31T05:34:47;99042.06;;;13.84;65.28
10700;BME280;5401;41.986;21.452;2022-10-31T05:37:14;99032.31;;;14.20;65.15
10700;BME280;5401;41.986;21.452;2022-10-31T05:39:42;99037.75;;;14.62;64.52
10700;BME280;5401;41.986;21.452;2022-10-31T05:42:09;99035.53;;;14.76;64.05
10700;BME280;5401;41.986;21.452;2022-10-31T05:44:38;99014.03;;;14.70;62.85
10700;BME280;5401;41.986;21.452;2022-10-31T05:47:06;99035.72;;;14.99;63.44
10700;BME280;5401;41.986;21.452;2022-10-31T05:49:33;99026.97;;;15.39;62.52
10700;BME280;5401;41.986;21.452;2022-10-31T05:52:01;99037.66;;;15.92;61.91
10700;BME280;5401;41.986;21.452;2022-10-31T05:54:28;99027.25;;;16.36;61.34
10700;BME280;5401;41.986;21.452;2022-10-31T05:56:56;99040.47;;;17.01;59.71
10700;BME280;5401;41.986;21.452;2022-10-31T05:59:23;99038.63;;;17.51;58.72
10700;BME280;5401;41.986;21.452;2022-10-31T06:01:52;99046.81;;;17.95;58.95
10700;BME280;5401;41.986;21.452;2022-10-31T06:04:20;99038.72;;;18.39;58.00
10700;BME280;5401;41.986;21.452;2022-10-31T06:06:47;99047.38;;;18.85;57.15
10700;BME280;5401;41.986;21.452;2022-10-31T06:09:15;99051.53;;;19.25;55.74
10700;BME280;5401;41.986;21.452;2022-10-31T06:11:42;99058.50;;;19.59;55.01
10700;BME280;5401;41.986;21.452;2022-10-31T06:14:10;99054.19;;;20.05;54.55
10700;BME280;5401;41.986;21.452;2022-10-31T06:16:37;99055.44;;;20.45;54.06
10700;BME280;5401;41.986;21.452;2022-10-31T06:19:06;99062.88;;;20.80;53.07
10700;BME280;5401;41.986;21.452;2022-10-31T06:21:34;99071.56;;;21.13;52.83
10700;BME280;5401;41.986;21.452;2022-10-31T06:24:01;99069.72;;;21.29;52.64
10700;BME280;5401;41.986;21.452;2022-10-31T06:26:29;99070.66;;;21.39;52.21
10700;BME280;5401;41.986;21.452;2022-10-31T06:28:57;99068.50;;;21.41;51.91
10700;BME280;5401;41.986;21.452;2022-10-31T06:31:24;99076.69;;;21.46;52.04
10700;BME280;5401;41.986;21.452;2022-10-31T06:33:52;99070.38;;;21.41;52.27
10700;BME280;5401;41.986;21.452;2022-10-31T06:36:21;99072.59;;;21.44;52.59
10700;BME280;5401;41.986;21.452;2022-10-31T06:38:48;99072.34;;;21.45;52.08
10700;BME280;5401;41.986;21.452;2022-10-31T06:41:16;99063.09;;;21.51;52.14
10700;BME280;5401;41.986;21.452;2022-10-31T06:43:46;99080.66;;;21.75;51.61
10700;BME280;5401;41.986;21.452;2022-10-31T06:46:13;99082.91;;;21.87;51.16
10700;BME280;5401;41.986;21.452;2022-10-31T06:48:42;99068.78;;;22.00;50.87
10700;BME280;5401;41.986;21.452;2022-10-31T06:51:09;99073.50;;;22.24;50.36
10700;BME280;5401;41.986;21.452;2022-10-31T06:53:38;99070.81;;;22.49;50.63
10700;BME280;5401;41.986;21.452;2022-10-31T06:56:06;99077.94;;;22.70;49.94
10700;BME280;5401;41.986;21.452;2022-10-31T06:58:34;99077.13;;;22.84;49.25
10700;BME280;5401;41.986;21.452;2022-10-31T07:01:01;99073.91;;;22.87;49.48
10700;BME280;5401;41.986;21.452;2022-10-31T07:03:29;99065.69;;;22.97;48.67
10700;BME280;5401;41.986;21.452;2022-10-31T07:05:56;99067.88;;;23.05;48.84
10700;BME280;5401;41.986;21.452;2022-10-31T07:08:24;99071.69;;;23.04;48.26
10700;BME280;5401;41.986;21.452;2022-10-31T07:10:55;99076.91;;;23.05;48.04
10700;BME280;5401;41.986;21.452;2022-10-31T07:13:23;99073.34;;;23.00;48.23
10700;BME280;5401;41.986;21.452;2022-10-31T07:15:52;99083.19;;;22.91;48.30
10700;BME280;5401;41.986;21.452;2022-10-31T07:18:20;99082.34;;;22.86;47.61
10700;BME280;5401;41.986;21.452;2022-10-31T07:20:48;99074.72;;;22.92;48.13
10700;BME280;5401;41.986;21.452;2022-10-31T07:23:15;99079.34;;;22.92;47.90
10700;BME280;5401;41.986;21.452;2022-10-31T07:25:43;99078.81;;;22.95;47.52
10700;BME280;5401;41.986;21.452;2022-10-31T07:28:12;99068.97;;;22.94;47.53
10700;BME280;5401;41.986;21.452;2022-10-31T07:30:40;99073.63;;;22.93;47.48
10700;BME280;5401;41.986;21.452;2022-10-31T07:33:08;99068.69;;;22.95;47.42
10700;BME280;5401;41.986;21.452;2022-10-31T07:35:36;99064.88;;;22.96;47.00
10700;BME280;5401;41.986;21.452;2022-10-31T07:38:07;99064.06;;;23.11;47.03
10700;BME280;5401;41.986;21.452;2022-10-31T07:40:35;99056.38;;;23.27;46.57
10700;BME280;5401;41.986;21.452;2022-10-31T07:43:03;99053.31;;;23.49;46.59
10700;BME280;5401;41.986;21.452;2022-10-31T07:45:32;99063.41;;;23.68;46.25
10700;BME280;5401;41.986;21.452;2022-10-31T07:47:59;99057.06;;;23.82;45.98
10700;BME280;5401;41.986;21.452;2022-10-31T07:50:30;99054.06;;;23.84;45.84
10700;BME280;5401;41.986;21.452;2022-10-31T07:53:00;99069.75;;;24.11;45.72
10700;BME280;5401;41.986;21.452;2022-10-31T07:55:28;99058.25;;;24.24;45.39
10700;BME280;5401;41.986;21.452;2022-10-31T07:57:57;99062.84;;;24.34;45.34
10700;BME280;5401;41.986;21.452;2022-10-31T08:00:26;99056.28;;;24.30;45.21
10700;BME280;5401;41.986;21.452;2022-10-31T08:02:59;99056.06;;;24.26;44.74
10700;BME280;5401;41.986;21.452;2022-10-31T08:05:26;99053.25;;;24.36;45.24
10700;BME280;5401;41.986;21.452;2022-10-31T08:07:54;99055.88;;;24.51;44.93
10700;BME280;5401;41.986;21.452;2022-10-31T08:10:22;99052.22;;;24.65;44.39
10700;BME280;5401;41.986;21.452;2022-10-31T08:12:55;99052.69;;;24.77;44.41
10700;BME280;5401;41.986;21.452;2022-10-31T08:15:24;99050.38;;;24.89;44.53
10700;BME280;5401;41.986;21.452;2022-10-31T08:17:51;99041.06;;;24.95;44.02
10700;BME280;5401;41.986;21.452;2022-10-31T08:20:21;99044.00;;;25.03;43.93
10700;BME280;5401;41.986;21.452;2022-10-31T08:22:55;99048.22;;;25.19;43.43
10700;BME280;5401;41.986;21.452;2022-10-31T08:25:23;99043.22;;;25.26;43.70
10700;BME280;5401;41.986;21.452;2022-10-31T08:27:51;99046.81;;;25.21;43.29
10700;BME280;5401;41.986;21.452;2022-10-31T08:30:20;99039.06;;;25.28;43.08
10700;BME280;5401;41.986;21.452;2022-10-31T08:32:57;99038.03;;;25.47;43.21
10700;BME280;5401;41.986;21.452;2022-10-31T08:35:26;99017.72;;;25.48;42.53
10700;BME280;5401;41.986;21.452;2022-10-31T08:37:53;99035.22;;;25.57;42.59
10700;BME280;5401;41.986;21.452;2022-10-31T08:40:22;99025.34;;;25.56;42.93
10700;BME280;5401;41.986;21.452;2022-10-31T08:42:56;99035.22;;;25.57;42.29
10700;BME280;5401;41.986;21.452;2022-10-31T08:45:24;99037.44;;;25.55;42.55
10700;BME280;5401;41.986;21.452;2022-10-31T08:47:52;99033.00;;;25.59;42.13
10700;BME280;5401;41.986;21.452;2022-10-31T08:50:19;99028.91;;;25.57;42.14
10700;BME280;5401;41.986;21.452;2022-10-31T08:52:48;99026.47;;;25.50;41.91
10700;BME280;5401;41.986;21.452;2022-10-31T08:55:16;99031.59;;;25.62;41.80
10700;BME280;5401;41.986;21.452;2022-10-31T08:57:43;99030.13;;;25.69;41.81
10700;BME280;5401;41.986;21.452;2022-10-31T09:00:11;99026.72;;;25.77;41.68
10700;BME280;5401;41.986;21.452;2022-10-31T09:02:39;99039.75;;;25.90;41.41
10700;BME280;5401;41.986;21.452;2022-10-31T09:05:07;99024.09;;;25.90;41.18
10700;BME280;5401;41.986;21.452;2022-10-31T09:07:34;99035.72;;;25.82;41.16
10700;BME280;5401;41.986;21.452;2022-10-31T09:10:04;99024.34;;;25.71;41.88
10700;BME280;5401;41.986;21.452;2022-10-31T09:12:31;99038.34;;;25.69;41.75
10700;BME280;5401;41.986;21.452;2022-10-31T09:14:59;99027.97;;;25.66;41.28
10700;BME280;5401;41.986;21.452;2022-10-31T09:17:27;99020.19;;;25.50;41.42
10700;BME280;5401;41.986;21.452;2022-10-31T09:19:55;99022.34;;;25.53;41.41
10700;BME280;5401;41.986;21.452;2022-10-31T09:22:23;99022.59;;;25.56;41.72
10700;BME280;5401;41.986;21.452;2022-10-31T09:24:50;99028.56;;;25.63;41.69
10700;BME280;5401;41.986;21.452;2022-10-31T09:27:19;99023.91;;;25.64;41.44
10700;BME280;5401;41.986;21.452;2022-10-31T09:29:47;99015.38;;;25.65;41.21
10700;BME280;5401;41.986;21.452;2022-10-31T09:32:14;99017.94;;;25.80;40.93
10700;BME280;5401;41.986;21.452;2022-10-31T09:34:41;99005.13;;;25.94;41.06
10700;BME280;5401;41.986;21.452;2022-10-31T09:37:09;99007.94;;;26.07;40.61
10700;BME280;5401;41.986;21.452;2022-10-31T09:39:36;99002.59;;;26.16;40.46
10700;BME280;5401;41.986;21.452;2022-10-31T09:45:11;98998.03;;;26.29;40.37
10700;BME280;5401;41.986;21.452;2022-10-31T09:47:52;98991.13;;;26.32;40.15
10700;BME280;5401;41.986;21.452;2022-10-31T09:50:27;98992.09;;;26.41;40.10
10700;BME280;5401;41.986;21.452;2022-10-31T09:53:02;98988.53;;;26.58;39.71
10700;BME280;5401;41.986;21.452;2022-10-31T09:55:35;98977.97;;;26.65;40.04
10700;BME280;5401;41.986;21.452;2022-10-31T09:58:04;98971.56;;;26.70;40.01
10700;BME280;5401;41.986;21.452;2022-10-31T10:00:34;98973.91;;;26.76;40.12
10700;BME280;5401;41.986;21.452;2022-10-31T10:03:07;98979.38;;;26.81;39.74
10700;BME280;5401;41.986;21.452;2022-10-31T10:05:43;98970.72;;;26.88;39.73
10700;BME280;5401;41.986;21.452;2022-10-31T10:08:14;98970.78;;;27.01;39.53
10700;BME280;5401;41.986;21.452;2022-10-31T10:10:49;98971.81;;;27.05;39.73
10700;BME280;5401;41.986;21.452;2022-10-31T10:13:31;98970.25;;;26.99;39.05
10700;BME280;5401;41.986;21.452;2022-10-31T10:16:11;98957.22;;;26.91;39.48
10700;BME280;5401;41.986;21.452;2022-10-31T10:18:51;98962.41;;;26.92;39.11
10700;BME280;5401;41.986;21.452;2022-10-31T10:21:28;98961.78;;;26.95;39.36
10700;BME280;5401;41.986;21.452;2022-10-31T10:26:53;98942.78;;;26.99;39.45
10700;BME280;5401;41.986;21.452;2022-10-31T10:29:31;98940.44;;;27.06;38.87
10700;BME280;5401;41.986;21.452;2022-10-31T10:32:08;98941.34;;;27.15;38.60
10700;BME280;5401;41.986;21.452;2022-10-31T10:34:41;98932.38;;;27.23;39.09
10700;BME280;5401;41.986;21.452;2022-10-31T10:37:20;98934.25;;;27.27;38.85
10700;BME280;5401;41.986;21.452;2022-10-31T10:39:52;98929.56;;;27.41;38.23
10700;BME280;5401;41.986;21.452;2022-10-31T10:42:23;98921.81;;;27.56;38.18
10700;BME280;5401;41.986;21.452;2022-10-31T10:45:15;98920.47;;;27.67;38.00
10700;BME280;5401;41.986;21.452;2022-10-31T10:48:06;98907.13;;;27.74;37.74
10700;BME280;5401;41.986;21.452;2022-10-31T10:50:40;98912.34;;;27.75;37.85
10700;BME280;5401;41.986;21.452;2022-10-31T10:53:22;98912.00;;;27.77;37.89
10700;BME280;5401;41.986;21.452;2022-10-31T10:56:10;98905.69;;;27.76;37.74
10700;BME280;5401;41.986;21.452;2022-10-31T10:58:39;98911.19;;;27.76;38.20
10700;BME280;5401;41.986;21.452;2022-10-31T11:01:12;98903.56;;;27.73;37.32
10700;BME280;5401;41.986;21.452;2022-10-31T11:03:42;98899.59;;;27.66;38.15
10700;BME280;5401;41.986;21.452;2022-10-31T11:06:20;98897.34;;;27.68;37.78
10700;BME280;5401;41.986;21.452;2022-10-31T11:08:52;98893.38;;;27.74;38.01
10700;BME280;5401;41.986;21.452;2022-10-31T11:11:24;98889.25;;;27.85;37.55
10700;BME280;5401;41.986;21.452;2022-10-31T11:13:58;98889.16;;;27.90;37.47
10700;BME280;5401;41.986;21.452;2022-10-31T11:16:29;98878.22;;;27.98;37.57
10700;BME280;5401;41.986;21.452;2022-10-31T11:19:08;98883.91;;;28.01;37.68
10700;BME280;5401;41.986;21.452;2022-10-31T11:21:38;98889.03;;;28.08;37.21
10700;BME280;5401;41.986;21.452;2022-10-31T11:24:13;98879.13;;;28.07;37.49
10700;BME280;5401;41.986;21.452;2022-10-31T11:26:43;98879.16;;;27.94;37.38
10700;BME280;5401;41.986;21.452;2022-10-31T11:29:15;98876.72;;;27.79;37.31
10700;BME280;5401;41.986;21.452;2022-10-31T11:31:44;98869.19;;;27.71;37.61
10700;BME280;5401;41.986;21.452;2022-10-31T11:34:22;98860.94;;;27.71;37.65
10700;BME280;5401;41.986;21.452;2022-10-31T11:36:53;98863.91;;;27.74;37.64
10700;BME280;5401;41.986;21.452;2022-10-31T11:39:22;98859.72;;;27.77;37.39
10700;BME280;5401;41.986;21.452;2022-10-31T11:41:52;98858.53;;;27.91;37.62
10700;BME280;5401;41.986;21.452;2022-10-31T11:44:23;98854.38;;;27.94;37.09
10700;BME280;5401;41.986;21.452;2022-10-31T11:46:54;98844.38;;;27.98;37.30
10700;BME280;5401;41.986;21.452;2022-10-31T11:49:29;98847.50;;;28.04;36.79
10700;BME280;5401;41.986;21.452;2022-10-31T11:52:00;98856.34;;;28.15;37.12
10700;BME280;5401;41.986;21.452;2022-10-31T11:54:32;98832.06;;;28.17;36.90
10700;BME280;5401;41.986;21.452;2022-10-31T11:57:00;98844.50;;;28.36;37.03
10700;BME280;5401;41.986;21.452;2022-10-31T11:59:30;98837.09;;;28.45;36.87
10700;BME280;5401;41.986;21.452;2022-10-31T12:02:00;98828.56;;;28.55;36.68
10700;BME280;5401;41.986;21.452;2022-10-31T12:04:34;98831.72;;;28.62;36.41
10700;BME280;5401;41.986;21.452;2022-10-31T12:07:06;98821.03;;;28.60;36.45
10700;BME280;5401;41.986;21.452;2022-10-31T12:09:35;98828.16;;;28.61;36.45
10700;BME280;5401;41.986;21.452;2022-10-31T12:15:16;98805.00;;;28.40;36.46
10700;BME280;5401;41.986;21.452;2022-10-31T12:17:52;98814.56;;;28.43;36.40
10700;BME280;5401;41.986;21.452;2022-10-31T12:20:32;98815.81;;;28.37;36.58
10700;BME280;5401;41.986;21.452;2022-10-31T12:23:09;98826.53;;;28.38;36.49
10700;BME280;5401;41.986;21.452;2022-10-31T12:25:44;98817.31;;;28.43;36.47
10700;BME280;5401;41.986;21.452;2022-10-31T12:28:37;98817.25;;;28.56;36.35
10700;BME280;5401;41.986;21.452;2022-10-31T12:31:19;98811.47;;;28.66;36.18
10700;BME280;5401;41.986;21.452;2022-10-31T12:33:59;98824.94;;;28.68;36.07
10700;BME280;5401;41.986;21.452;2022-10-31T12:36:37;98819.88;;;28.61;36.23
10700;BME280;5401;41.986;21.452;2022-10-31T12:39:28;98812.25;;;28.58;36.09
10700;BME280;5401;41.986;21.452;2022-10-31T12:42:04;98800.97;;;28.46;35.90
10700;BME280;5401;41.986;21.452;2022-10-31T12:44:55;98803.31;;;28.31;36.34
10700;BME280;5401;41.986;21.452;2022-10-31T12:47:54;98801.44;;;28.18;36.36
10700;BME280;5401;41.986;21.452;2022-10-31T12:50:33;98815.28;;;28.27;36.34
10700;BME280;5401;41.986;21.452;2022-10-31T12:53:31;98807.63;;;28.24;36.36
10700;BME280;5401;41.986;21.452;2022-10-31T12:56:13;98807.81;;;28.27;35.99
10700;BME280;5401;41.986;21.452;2022-10-31T12:58:46;98805.72;;;28.24;36.06
10700;BME280;5401;41.986;21.452;2022-10-31T13:01:16;98808.00;;;28.31;36.00
10700;BME280;5401;41.986;21.452;2022-10-31T13:03:48;98810.63;;;28.35;35.97
10700;BME280;5401;41.986;21.452;2022-10-31T13:06:21;98802.06;;;28.37;35.96
10700;BME280;5401;41.986;21.452;2022-10-31T13:08:53;98801.13;;;28.50;35.70
10700;BME280;5401;41.986;21.452;2022-10-31T13:11:24;98802.03;;;28.59;35.52
10700;BME280;5401;41.986;21.452;2022-10-31T13:13:58;98805.47;;;28.64;35.64
10700;BME280;5401;41.986;21.452;2022-10-31T13:16:31;98802.88;;;28.68;35.25
10700;BME280;5401;41.986;21.452;2022-10-31T13:19:03;98808.41;;;28.68;35.26
10700;BME280;5401;41.986;21.452;2022-10-31T13:21:36;98810.34;;;28.67;35.32
10700;BME280;5401;41.986;21.452;2022-10-31T13:24:11;98801.88;;;28.64;35.33
10700;BME280;5401;41.986;21.452;2022-10-31T13:26:44;98809.19;;;28.68;35.07
10700;BME280;5401;41.986;21.452;2022-10-31T13:29:18;98803.53;;;28.65;35.06
10700;BME280;5401;41.986;21.452;2022-10-31T13:31:47;98804.84;;;28.67;35.02